sensor_id;sensor_type;location;lat;lon;timestamp;temperature;humidity
26230;DHT22;13960;50.860;4.352;2022-07-10T00:01:44;18.80;99.90
26230;DHT22;13960;50.860;4.352;2022-07-10T00:04:10;18.60;99.90
26230;DHT22;13960;50.860;4.352;2022-07-10T00:06:35;18.60;99.90
26230;DHT22;13960;50.860;4.352;2022-07-10T00:09:01;18.40;99.90
26230;DHT22;13960;50.860;4.352;2022-07-10T00:11:26;18.20;99.90
26230;DHT22;13960;50.860;4.352;2022-07-10T00:13:52;18.20;99.90
26230;DHT22;13960;50.860;4.352;2022-07-10T00:16:17;18.30;99.90
26230;DHT22;13960;50.860;4.352;2022-07-10T00:18:43;18.50;99.90
26230;DHT22;13960;50.860;4.352;2022-07-10T00:21:08;18.60;99.90
26230;DHT22;13960;50.860;4.352;2022-07-10T00:23:34;18.60;99.90
26230;DHT22;13960;50.860;4.352;2022-07-10T00:25:59;18.40;99.90
26230;DHT22;13960;50.860;4.352;2022-07-10T00:28:25;18.20;99.90
26230;DHT22;13960;50.860;4.352;2022-07-10T00:30:50;18.00;99.90
26230;DHT22;13960;50.860;4.352;2022-07-10T00:33:16;18.00;99.90
26230;DHT22;13960;50.860;4.352;2022-07-10T00:35:41;17.90;99.90
26230;DHT22;13960;50.860;4.352;2022-07-10T00:38:07;17.70;99.90
26230;DHT22;13960;50.860;4.352;2022-07-10T00:40:32;17.50;99.90
26230;DHT22;13960;50.860;4.352;2022-07-10T00:42:58;17.40;99.90
26230;DHT22;13960;50.860;4.352;2022-07-10T00:45:24;17.40;99.90
26230;DHT22;13960;50.860;4.352;2022-07-10T00:47:49;17.60;99.90
26230;DHT22;13960;50.860;4.352;2022-07-10T00:50:15;17.60;99.90
26230;DHT22;13960;50.860;4.352;2022-07-10T00:52:40;17.60;99.90
26230;DHT22;13960;50.860;4.352;2022-07-10T00:55:06;17.40;99.90
26230;DHT22;13960;50.860;4.352;2022-07-10T00:57:33;17.30;99.90
26230;DHT22;13960;50.860;4.352;2022-07-10T01:00:00;17.10;99.90
26230;DHT22;13960;50.860;4.352;2022-07-10T01:02:26;17.20;99.90
26230;DHT22;13960;50.860;4.352;2022-07-10T01:04:51;17.30;99.90
26230;DHT22;13960;50.860;4.352;2022-07-10T01:07:17;17.40;99.90
26230;DHT22;13960;50.860;4.352;2022-07-10T01:09:42;17.40;99.90
26230;DHT22;13960;50.860;4.352;2022-07-10T01:12:08;17.60;99.90
26230;DHT22;13960;50.860;4.352;2022-07-10T01:14:36;17.70;99.90
26230;DHT22;13960;50.860;4.352;2022-07-10T01:17:03;17.70;99.90
26230;DHT22;13960;50.860;4.352;2022-07-10T01:19:29;17.80;99.90
26230;DHT22;13960;50.860;4.352;2022-07-10T01:21:54;17.80;99.90
26230;DHT22;13960;50.860;4.352;2022-07-10T01:24:20;17.90;99.90
26230;DHT22;13960;50.860;4.352;2022-07-10T01:26:45;17.90;99.90
26230;DHT22;13960;50.860;4.352;2022-07-10T01:29:11;17.60;99.90
26230;DHT22;13960;50.860;4.352;2022-07-10T01:31:37;17.20;99.90
26230;DHT22;13960;50.860;4.352;2022-07-10T01:34:07;17.20;99.90
26230;DHT22;13960;50.860;4.352;2022-07-10T01:36:33;17.30;99.90
26230;DHT22;13960;50.860;4.352;2022-07-10T01:38:59;17.40;99.90
26230;DHT22;13960;50.860;4.352;2022-07-10T01:41:25;17.10;99.90
26230;DHT22;13960;50.860;4.352;2022-07-10T01:43:51;17.00;99.90
26230;DHT22;13960;50.860;4.352;2022-07-10T01:46:17;17.20;99.90
26230;DHT22;13960;50.860;4.352;2022-07-10T01:48:43;17.40;99.90
26230;DHT22;13960;50.860;4.352;2022-07-10T01:51:09;17.50;99.90
26230;DHT22;13960;50.860;4.352;2022-07-10T01:53:35;17.60;99.90
26230;DHT22;13960;50.860;4.352;2022-07-10T01:56:03;17.70;99.90
26230;DHT22;13960;50.860;4.352;2022-07-10T01:58:28;17.50;99.90
26230;DHT22;13960;50.860;4.352;2022-07-10T02:00:54;17.50;99.90
26230;DHT22;13960;50.860;4.352;2022-07-10T02:03:19;17.60;99.90
26230;DHT22;13960;50.860;4.352;2022-07-10T02:06:03;17.70;99.90
26230;DHT22;13960;50.860;4.352;2022-07-10T02:08:29;17.60;99.90
26230;DHT22;13960;50.860;4.352;2022-07-10T02:10:54;17.70;99.90
26230;DHT22;13960;50.860;4.352;2022-07-10T02:13:20;17.60;99.90
26230;DHT22;13960;50.860;4.352;2022-07-10T02:15:46;17.50;99.90
26230;DHT22;13960;50.860;4.352;2022-07-10T02:18:13;17.70;99.90
26230;DHT22;13960;50.860;4.352;2022-07-10T02:20:38;17.80;99.90
26230;DHT22;13960;50.860;4.352;2022-07-10T02:23:04;17.60;99.90
26230;DHT22;13960;50.860;4.352;2022-07-10T02:25:29;17.50;99.90
26230;DHT22;13960;50.860;4.352;2022-07-10T02:27:55;17.40;99.90
26230;DHT22;13960;50.860;4.352;2022-07-10T02:30:20;17.00;99.90
26230;DHT22;13960;50.860;4.352;2022-07-10T02:32:46;16.90;99.90
26230;DHT22;13960;50.860;4.352;2022-07-10T02:35:11;16.80;99.90
26230;DHT22;13960;50.860;4.352;2022-07-10T02:37:37;16.60;99.90
26230;DHT22;13960;50.860;4.352;2022-07-10T02:40:02;16.70;99.90
26230;DHT22;13960;50.860;4.352;2022-07-10T02:42:28;16.60;99.90
26230;DHT22;13960;50.860;4.352;2022-07-10T02:44:53;16.40;99.90
26230;DHT22;13960;50.860;4.352;2022-07-10T02:47:19;16.50;99.90
26230;DHT22;13960;50.860;4.352;2022-07-10T02:49:44;16.60;99.90
26230;DHT22;13960;50.860;4.352;2022-07-10T02:52:10;16.80;99.90
26230;DHT22;13960;50.860;4.352;2022-07-10T02:54:36;17.00;99.90
26230;DHT22;13960;50.860;4.352;2022-07-10T02:57:01;16.90;99.90
26230;DHT22;13960;50.860;4.352;2022-07-10T02:59:27;16.90;99.90
26230;DHT22;13960;50.860;4.352;2022-07-10T03:01:52;16.90;99.90
26230;DHT22;13960;50.860;4.352;2022-07-10T03:04:18;16.90;99.90
26230;DHT22;13960;50.860;4.352;2022-07-10T03:06:43;17.00;99.90
26230;DHT22;13960;50.860;4.352;2022-07-10T03:09:09;17.00;99.90
26230;DHT22;13960;50.860;4.352;2022-07-10T03:11:34;16.80;99.90
26230;DHT22;13960;50.860;4.352;2022-07-10T03:14:00;17.00;99.90
26230;DHT22;13960;50.860;4.352;2022-07-10T03:16:25;17.10;99.90
26230;DHT22;13960;50.860;4.352;2022-07-10T03:18:51;17.30;99.90
26230;DHT22;13960;50.860;4.352;2022-07-10T03:21:16;17.50;99.90
26230;DHT22;13960;50.860;4.352;2022-07-10T03:23:42;17.60;99.90
26230;DHT22;13960;50.860;4.352;2022-07-10T03:26:07;17.40;99.90
26230;DHT22;13960;50.860;4.352;2022-07-10T03:28:33;17.40;99.90
26230;DHT22;13960;50.860;4.352;2022-07-10T03:30:58;17.50;99.90
26230;DHT22;13960;50.860;4.352;2022-07-10T03:33:24;17.50;99.90
26230;DHT22;13960;50.860;4.352;2022-07-10T03:35:49;17.60;99.90
26230;DHT22;13960;50.860;4.352;2022-07-10T03:38:15;17.70;99.90
26230;DHT22;13960;50.860;4.352;2022-07-10T03:40:40;17.80;99.90
26230;DHT22;13960;50.860;4.352;2022-07-10T03:43:06;17.80;99.90
26230;DHT22;13960;50.860;4.352;2022-07-10T03:45:31;17.50;99.90
26230;DHT22;13960;50.860;4.352;2022-07-10T03:47:57;17.30;99.90
26230;DHT22;13960;50.860;4.352;2022-07-10T03:50:23;17.20;99.90
26230;DHT22;13960;50.860;4.352;2022-07-10T03:52:48;17.30;99.90
26230;DHT22;13960;50.860;4.352;2022-07-10T03:55:14;17.20;99.90
26230;DHT22;13960;50.860;4.352;2022-07-10T03:57:39;17.00;99.90
26230;DHT22;13960;50.860;4.352;2022-07-10T04:00:27;16.90;99.90
26230;DHT22;13960;50.860;4.352;2022-07-10T04:02:56;16.70;99.90
26230;DHT22;13960;50.860;4.352;2022-07-10T04:05:22;16.70;99.90
26230;DHT22;13960;50.860;4.352;2022-07-10T04:07:47;16.40;99.90
26230;DHT22;13960;50.860;4.352;2022-07-10T04:10:13;16.40;99.90
26230;DHT22;13960;50.860;4.352;2022-07-10T04:12:38;16.60;99.90
26230;DHT22;13960;50.860;4.352;2022-07-10T04:15:04;16.60;99.90
26230;DHT22;13960;50.860;4.352;2022-07-10T04:17:29;16.50;99.90
26230;DHT22;13960;50.860;4.352;2022-07-10T04:19:58;16.60;99.90
26230;DHT22;13960;50.860;4.352;2022-07-10T04:22:23;16.80;99.90
26230;DHT22;13960;50.860;4.352;2022-07-10T04:24:50;17.00;99.90
26230;DHT22;13960;50.860;4.352;2022-07-10T04:27:15;16.90;99.90
26230;DHT22;13960;50.860;4.352;2022-07-10T04:29:42;16.90;99.90
26230;DHT22;13960;50.860;4.352;2022-07-10T04:32:08;16.90;99.90
26230;DHT22;13960;50.860;4.352;2022-07-10T04:34:34;16.50;99.90
26230;DHT22;13960;50.860;4.352;2022-07-10T04:36:59;16.60;99.90
26230;DHT22;13960;50.860;4.352;2022-07-10T04:39:25;16.70;99.90
26230;DHT22;13960;50.860;4.352;2022-07-10T04:41:51;16.70;99.90
26230;DHT22;13960;50.860;4.352;2022-07-10T04:44:17;16.90;99.90
26230;DHT22;13960;50.860;4.352;2022-07-10T04:46:42;17.00;99.90
26230;DHT22;13960;50.860;4.352;2022-07-10T04:49:08;17.10;99.90
26230;DHT22;13960;50.860;4.352;2022-07-10T04:51:33;17.00;99.90
26230;DHT22;13960;50.860;4.352;2022-07-10T04:53:59;16.80;99.90
26230;DHT22;13960;50.860;4.352;2022-07-10T04:56:24;16.60;99.90
26230;DHT22;13960;50.860;4.352;2022-07-10T04:58:50;16.60;99.90
26230;DHT22;13960;50.860;4.352;2022-07-10T05:01:15;16.60;99.90
26230;DHT22;13960;50.860;4.352;2022-07-10T05:03:41;16.80;99.90
26230;DHT22;13960;50.860;4.352;2022-07-10T05:06:06;16.80;99.90
26230;DHT22;13960;50.860;4.352;2022-07-10T05:08:32;16.50;99.90
26230;DHT22;13960;50.860;4.352;2022-07-10T05:10:57;16.20;99.90
26230;DHT22;13960;50.860;4.352;2022-07-10T05:13:23;16.40;99.90
26230;DHT22;13960;50.860;4.352;2022-07-10T05:15:48;16.60;99.90
26230;DHT22;13960;50.860;4.352;2022-07-10T05:18:15;16.80;99.90
26230;DHT22;13960;50.860;4.352;2022-07-10T05:20:41;17.00;99.90
26230;DHT22;13960;50.860;4.352;2022-07-10T05:23:09;16.80;99.90
26230;DHT22;13960;50.860;4.352;2022-07-10T05:25:35;16.70;99.90
26230;DHT22;13960;50.860;4.352;2022-07-10T05:28:03;16.60;99.90
26230;DHT22;13960;50.860;4.352;2022-07-10T05:30:29;16.50;99.90
26230;DHT22;13960;50.860;4.352;2022-07-10T05:32:54;16.60;99.90
26230;DHT22;13960;50.860;4.352;2022-07-10T05:35:20;16.80;99.90
26230;DHT22;13960;50.860;4.352;2022-07-10T05:37:45;16.90;99.90
26230;DHT22;13960;50.860;4.352;2022-07-10T05:40:11;17.10;99.90
26230;DHT22;13960;50.860;4.352;2022-07-10T05:42:37;17.10;99.90
26230;DHT22;13960;50.860;4.352;2022-07-10T05:45:02;17.00;99.90
26230;DHT22;13960;50.860;4.352;2022-07-10T05:47:29;17.00;99.90
26230;DHT22;13960;50.860;4.352;2022-07-10T05:49:55;16.80;99.90
26230;DHT22;13960;50.860;4.352;2022-07-10T05:52:20;16.50;99.90
26230;DHT22;13960;50.860;4.352;2022-07-10T05:54:46;16.50;99.90
26230;DHT22;13960;50.860;4.352;2022-07-10T05:57:11;16.40;99.90
26230;DHT22;13960;50.860;4.352;2022-07-10T05:59:37;16.50;99.90
26230;DHT22;13960;50.860;4.352;2022-07-10T06:02:02;16.40;99.90
26230;DHT22;13960;50.860;4.352;2022-07-10T06:04:28;16.50;99.90
26230;DHT22;13960;50.860;4.352;2022-07-10T06:06:54;16.40;99.90
26230;DHT22;13960;50.860;4.352;2022-07-10T06:09:19;16.40;99.90
26230;DHT22;13960;50.860;4.352;2022-07-10T06:11:45;16.40;99.90
26230;DHT22;13960;50.860;4.352;2022-07-10T06:14:13;16.50;99.90
26230;DHT22;13960;50.860;4.352;2022-07-10T06:16:39;16.70;99.90
26230;DHT22;13960;50.860;4.352;2022-07-10T06:19:05;16.80;99.90
26230;DHT22;13960;50.860;4.352;2022-07-10T06:21:31;16.80;99.90
26230;DHT22;13960;50.860;4.352;2022-07-10T06:23:56;16.70;99.90
26230;DHT22;13960;50.860;4.352;2022-07-10T06:26:23;16.60;99.90
26230;DHT22;13960;50.860;4.352;2022-07-10T06:28:49;16.70;99.90
26230;DHT22;13960;50.860;4.352;2022-07-10T06:31:14;16.90;99.90
26230;DHT22;13960;50.860;4.352;2022-07-10T06:33:40;17.00;99.90
26230;DHT22;13960;50.860;4.352;2022-07-10T06:36:06;17.10;99.90
26230;DHT22;13960;50.860;4.352;2022-07-10T06:38:32;17.30;99.90
26230;DHT22;13960;50.860;4.352;2022-07-10T06:40:58;17.50;99.90
26230;DHT22;13960;50.860;4.352;2022-07-10T06:43:23;17.70;99.90
26230;DHT22;13960;50.860;4.352;2022-07-10T06:45:49;17.90;99.90
26230;DHT22;13960;50.860;4.352;2022-07-10T06:48:14;17.70;99.90
26230;DHT22;13960;50.860;4.352;2022-07-10T06:50:40;17.80;99.90
26230;DHT22;13960;50.860;4.352;2022-07-10T06:53:06;18.00;99.90
26230;DHT22;13960;50.860;4.352;2022-07-10T06:55:32;18.20;99.90
26230;DHT22;13960;50.860;4.352;2022-07-10T06:57:58;18.30;99.90
26230;DHT22;13960;50.860;4.352;2022-07-10T07:00:25;18.30;99.90
26230;DHT22;13960;50.860;4.352;2022-07-10T07:02:51;18.20;99.90
26230;DHT22;13960;50.860;4.352;2022-07-10T07:05:16;18.20;99.90
26230;DHT22;13960;50.860;4.352;2022-07-10T07:07:42;18.00;99.90
26230;DHT22;13960;50.860;4.352;2022-07-10T07:10:08;17.90;99.90
26230;DHT22;13960;50.860;4.352;2022-07-10T07:12:34;17.90;99.90
26230;DHT22;13960;50.860;4.352;2022-07-10T07:14:59;18.00;99.90
26230;DHT22;13960;50.860;4.352;2022-07-10T07:17:25;17.70;99.90
26230;DHT22;13960;50.860;4.352;2022-07-10T07:19:58;17.40;99.90
26230;DHT22;13960;50.860;4.352;2022-07-10T07:22:42;17.40;99.90
26230;DHT22;13960;50.860;4.352;2022-07-10T07:25:26;17.50;99.90
26230;DHT22;13960;50.860;4.352;2022-07-10T07:27:52;17.50;99.90
26230;DHT22;13960;50.860;4.352;2022-07-10T07:30:17;17.50;99.90
26230;DHT22;13960;50.860;4.352;2022-07-10T07:32:43;17.70;99.90
26230;DHT22;13960;50.860;4.352;2022-07-10T07:35:09;17.60;99.90
26230;DHT22;13960;50.860;4.352;2022-07-10T07:37:36;17.70;99.90
26230;DHT22;13960;50.860;4.352;2022-07-10T07:40:04;18.00;99.90
26230;DHT22;13960;50.860;4.352;2022-07-10T07:42:30;18.10;99.90
26230;DHT22;13960;50.860;4.352;2022-07-10T07:44:55;18.20;99.90
26230;DHT22;13960;50.860;4.352;2022-07-10T07:47:21;18.00;99.90
26230;DHT22;13960;50.860;4.352;2022-07-10T07:49:46;17.80;99.90
26230;DHT22;13960;50.860;4.352;2022-07-10T07:52:12;17.70;99.90
26230;DHT22;13960;50.860;4.352;2022-07-10T07:54:40;17.50;99.90
26230;DHT22;13960;50.860;4.352;2022-07-10T07:57:05;17.60;99.90
26230;DHT22;13960;50.860;4.352;2022-07-10T07:59:31;17.80;99.90
26230;DHT22;13960;50.860;4.352;2022-07-10T08:01:57;17.90;99.90
26230;DHT22;13960;50.860;4.352;2022-07-10T08:04:22;18.20;99.90
26230;DHT22;13960;50.860;4.352;2022-07-10T08:06:48;18.40;99.90
26230;DHT22;13960;50.860;4.352;2022-07-10T08:09:20;18.30;99.90
26230;DHT22;13960;50.860;4.352;2022-07-10T08:11:46;18.20;99.90
26230;DHT22;13960;50.860;4.352;2022-07-10T08:14:14;18.10;99.90
26230;DHT22;13960;50.860;4.352;2022-07-10T08:16:40;18.30;99.90
26230;DHT22;13960;50.860;4.352;2022-07-10T08:19:06;18.40;99.90
26230;DHT22;13960;50.860;4.352;2022-07-10T08:21:31;18.40;99.90
26230;DHT22;13960;50.860;4.352;2022-07-10T08:23:57;18.40;99.90
26230;DHT22;13960;50.860;4.352;2022-07-10T08:26:24;18.70;99.90
26230;DHT22;13960;50.860;4.352;2022-07-10T08:28:49;18.80;99.90
26230;DHT22;13960;50.860;4.352;2022-07-10T08:31:15;18.70;99.90
26230;DHT22;13960;50.860;4.352;2022-07-10T08:33:40;18.80;99.90
26230;DHT22;13960;50.860;4.352;2022-07-10T08:36:06;18.70;99.90
26230;DHT22;13960;50.860;4.352;2022-07-10T08:38:32;18.70;99.90
26230;DHT22;13960;50.860;4.352;2022-07-10T08:40:57;18.60;99.90
26230;DHT22;13960;50.860;4.352;2022-07-10T08:43:24;18.80;99.90
26230;DHT22;13960;50.860;4.352;2022-07-10T08:45:50;19.10;99.90
26230;DHT22;13960;50.860;4.352;2022-07-10T08:48:16;19.10;99.90
26230;DHT22;13960;50.860;4.352;2022-07-10T08:50:44;19.10;99.90
26230;DHT22;13960;50.860;4.352;2022-07-10T08:53:13;19.40;99.90
26230;DHT22;13960;50.860;4.352;2022-07-10T08:55:38;19.70;99.90
26230;DHT22;13960;50.860;4.352;2022-07-10T08:58:04;19.80;99.90
26230;DHT22;13960;50.860;4.352;2022-07-10T09:00:31;19.80;99.90
26230;DHT22;13960;50.860;4.352;2022-07-10T09:02:57;20.00;99.90
26230;DHT22;13960;50.860;4.352;2022-07-10T09:05:23;19.70;99.90
26230;DHT22;13960;50.860;4.352;2022-07-10T09:07:49;19.00;99.90
26230;DHT22;13960;50.860;4.352;2022-07-10T09:10:17;18.50;99.90
26230;DHT22;13960;50.860;4.352;2022-07-10T09:12:52;18.80;99.90
26230;DHT22;13960;50.860;4.352;2022-07-10T09:15:18;18.70;99.90
26230;DHT22;13960;50.860;4.352;2022-07-10T09:20:29;19.20;99.90
26230;DHT22;13960;50.860;4.352;2022-07-10T09:22:56;19.40;99.90
26230;DHT22;13960;50.860;4.352;2022-07-10T09:25:24;19.50;99.90
26230;DHT22;13960;50.860;4.352;2022-07-10T09:27:54;19.60;99.90
26230;DHT22;13960;50.860;4.352;2022-07-10T09:30:33;19.80;99.90
26230;DHT22;13960;50.860;4.352;2022-07-10T09:33:41;19.80;99.90
26230;DHT22;13960;50.860;4.352;2022-07-10T09:41:16;20.00;99.90
26230;DHT22;13960;50.860;4.352;2022-07-10T09:43:46;20.30;99.90
26230;DHT22;13960;50.860;4.352;2022-07-10T09:46:12;20.00;99.90
26230;DHT22;13960;50.860;4.352;2022-07-10T09:48:37;20.00;99.90
26230;DHT22;13960;50.860;4.352;2022-07-10T09:51:04;19.80;99.90
26230;DHT22;13960;50.860;4.352;2022-07-10T09:53:32;20.10;99.90
26230;DHT22;13960;50.860;4.352;2022-07-10T09:55:57;20.20;99.90
26230;DHT22;13960;50.860;4.352;2022-07-10T09:58:26;20.40;99.90
26230;DHT22;13960;50.860;4.352;2022-07-10T10:00:54;20.70;99.90
26230;DHT22;13960;50.860;4.352;2022-07-10T10:03:20;20.50;99.90
26230;DHT22;13960;50.860;4.352;2022-07-10T10:05:55;20.60;99.90
26230;DHT22;13960;50.860;4.352;2022-07-10T10:08:31;20.70;99.90
26230;DHT22;13960;50.860;4.352;2022-07-10T10:10:57;20.30;99.90
26230;DHT22;13960;50.860;4.352;2022-07-10T10:13:24;20.20;99.90
26230;DHT22;13960;50.860;4.352;2022-07-10T10:15:52;20.30;99.90
26230;DHT22;13960;50.860;4.352;2022-07-10T10:18:19;20.60;99.90
26230;DHT22;13960;50.860;4.352;2022-07-10T10:20:45;20.80;99.90
26230;DHT22;13960;50.860;4.352;2022-07-10T10:23:14;20.80;99.90
26230;DHT22;13960;50.860;4.352;2022-07-10T10:25:46;20.40;99.90
26230;DHT22;13960;50.860;4.352;2022-07-10T10:28:12;20.60;99.90
26230;DHT22;13960;50.860;4.352;2022-07-10T10:30:39;20.60;99.90
26230;DHT22;13960;50.860;4.352;2022-07-10T10:34:06;20.20;99.90
26230;DHT22;13960;50.860;4.352;2022-07-10T10:36:01;20.30;99.90
26230;DHT22;13960;50.860;4.352;2022-07-10T10:41:28;20.30;99.90
26230;DHT22;13960;50.860;4.352;2022-07-10T10:46:52;20.40;99.90
26230;DHT22;13960;50.860;4.352;2022-07-10T10:49:47;20.50;99.90
26230;DHT22;13960;50.860;4.352;2022-07-10T10:52:16;20.50;99.90
26230;DHT22;13960;50.860;4.352;2022-07-10T10:59:57;20.70;99.90
26230;DHT22;13960;50.860;4.352;2022-07-10T11:05:38;21.10;99.90
26230;DHT22;13960;50.860;4.352;2022-07-10T11:13:16;21.10;99.90
26230;DHT22;13960;50.860;4.352;2022-07-10T11:15:46;21.20;99.90
26230;DHT22;13960;50.860;4.352;2022-07-10T11:18:13;21.20;99.90
26230;DHT22;13960;50.860;4.352;2022-07-10T11:20:39;21.30;99.90
26230;DHT22;13960;50.860;4.352;2022-07-10T11:23:11;21.70;99.90
26230;DHT22;13960;50.860;4.352;2022-07-10T11:25:42;22.00;99.90
26230;DHT22;13960;50.860;4.352;2022-07-10T11:28:10;22.40;99.90
26230;DHT22;13960;50.860;4.352;2022-07-10T11:33:12;22.50;99.90
26230;DHT22;13960;50.860;4.352;2022-07-10T11:35:40;22.50;99.90
26230;DHT22;13960;50.860;4.352;2022-07-10T11:38:05;22.90;99.90
26230;DHT22;13960;50.860;4.352;2022-07-10T11:40:35;23.30;99.90
26230;DHT22;13960;50.860;4.352;2022-07-10T11:43:01;23.40;99.90
26230;DHT22;13960;50.860;4.352;2022-07-10T11:45:30;23.60;99.90
26230;DHT22;13960;50.860;4.352;2022-07-10T11:47:57;23.80;99.90
26230;DHT22;13960;50.860;4.352;2022-07-10T11:50:23;23.10;99.90
26230;DHT22;13960;50.860;4.352;2022-07-10T11:52:49;22.80;99.90
26230;DHT22;13960;50.860;4.352;2022-07-10T11:57:41;22.50;99.90
26230;DHT22;13960;50.860;4.352;2022-07-10T12:00:17;22.80;99.90
26230;DHT22;13960;50.860;4.352;2022-07-10T12:02:45;22.50;99.90
26230;DHT22;13960;50.860;4.352;2022-07-10T12:05:29;22.50;99.90
26230;DHT22;13960;50.860;4.352;2022-07-10T12:07:54;22.30;99.90
26230;DHT22;13960;50.860;4.352;2022-07-10T12:10:20;22.40;99.90
26230;DHT22;13960;50.860;4.352;2022-07-10T12:12:46;22.50;99.90
26230;DHT22;13960;50.860;4.352;2022-07-10T12:15:29;22.60;99.90
26230;DHT22;13960;50.860;4.352;2022-07-10T12:18:21;22.80;99.90
26230;DHT22;13960;50.860;4.352;2022-07-10T12:20:47;23.20;99.90
26230;DHT22;13960;50.860;4.352;2022-07-10T12:23:22;23.20;99.90
26230;DHT22;13960;50.860;4.352;2022-07-10T12:25:51;22.80;99.90
26230;DHT22;13960;50.860;4.352;2022-07-10T12:28:17;23.00;99.90
26230;DHT22;13960;50.860;4.352;2022-07-10T12:30:44;23.20;99.90
26230;DHT22;13960;50.860;4.352;2022-07-10T12:33:11;23.50;99.90
26230;DHT22;13960;50.860;4.352;2022-07-10T12:40:48;24.50;99.90
26230;DHT22;13960;50.860;4.352;2022-07-10T12:43:29;24.50;99.90
26230;DHT22;13960;50.860;4.352;2022-07-10T12:48:35;24.30;99.90
26230;DHT22;13960;50.860;4.352;2022-07-10T12:51:20;24.00;99.90
26230;DHT22;13960;50.860;4.352;2022-07-10T12:53:46;24.00;99.90
26230;DHT22;13960;50.860;4.352;2022-07-10T12:58:55;23.60;99.90
26230;DHT22;13960;50.860;4.352;2022-07-10T13:01:21;23.70;99.90
26230;DHT22;13960;50.860;4.352;2022-07-10T13:03:46;23.90;99.90
26230;DHT22;13960;50.860;4.352;2022-07-10T13:06:25;24.10;99.90
26230;DHT22;13960;50.860;4.352;2022-07-10T13:08:50;24.30;99.90
26230;DHT22;13960;50.860;4.352;2022-07-10T13:11:16;24.20;99.90
26230;DHT22;13960;50.860;4.352;2022-07-10T13:14:04;24.10;99.90
26230;DHT22;13960;50.860;4.352;2022-07-10T13:16:30;24.20;99.90
26230;DHT22;13960;50.860;4.352;2022-07-10T13:18:55;24.50;99.90
26230;DHT22;13960;50.860;4.352;2022-07-10T13:21:22;24.50;99.90
26230;DHT22;13960;50.860;4.352;2022-07-10T13:23:47;24.70;99.90
26230;DHT22;13960;50.860;4.352;2022-07-10T13:26:22;25.10;99.90
26230;DHT22;13960;50.860;4.352;2022-07-10T13:28:50;25.10;99.90
26230;DHT22;13960;50.860;4.352;2022-07-10T13:31:16;25.00;99.90
26230;DHT22;13960;50.860;4.352;2022-07-10T13:33:41;25.00;99.90
26230;DHT22;13960;50.860;4.352;2022-07-10T13:36:07;25.00;99.90
26230;DHT22;13960;50.860;4.352;2022-07-10T13:38:34;25.30;99.90
26230;DHT22;13960;50.860;4.352;2022-07-10T13:40:59;25.30;99.90
26230;DHT22;13960;50.860;4.352;2022-07-10T13:43:25;24.70;99.90
26230;DHT22;13960;50.860;4.352;2022-07-10T13:45:57;24.70;99.90
26230;DHT22;13960;50.860;4.352;2022-07-10T13:48:23;24.70;99.90
26230;DHT22;13960;50.860;4.352;2022-07-10T13:50:49;24.70;99.90
26230;DHT22;13960;50.860;4.352;2022-07-10T13:53:15;24.40;99.90
26230;DHT22;13960;50.860;4.352;2022-07-10T13:55:41;24.40;99.90
26230;DHT22;13960;50.860;4.352;2022-07-10T13:58:08;24.80;99.90
26230;DHT22;13960;50.860;4.352;2022-07-10T14:00:34;24.70;99.90
26230;DHT22;13960;50.860;4.352;2022-07-10T14:03:04;24.90;99.90
26230;DHT22;13960;50.860;4.352;2022-07-10T14:05:30;25.50;99.90
26230;DHT22;13960;50.860;4.352;2022-07-10T14:07:58;25.60;99.90
26230;DHT22;13960;50.860;4.352;2022-07-10T14:10:23;25.30;99.90
26230;DHT22;13960;50.860;4.352;2022-07-10T14:12:49;25.80;99.90
26230;DHT22;13960;50.860;4.352;2022-07-10T14:15:14;25.60;99.90
26230;DHT22;13960;50.860;4.352;2022-07-10T14:17:40;25.30;99.90
26230;DHT22;13960;50.860;4.352;2022-07-10T14:20:06;25.40;99.90
26230;DHT22;13960;50.860;4.352;2022-07-10T14:22:31;25.70;99.90
26230;DHT22;13960;50.860;4.352;2022-07-10T14:24:57;25.90;99.90
26230;DHT22;13960;50.860;4.352;2022-07-10T14:27:23;26.40;99.90
26230;DHT22;13960;50.860;4.352;2022-07-10T14:29:49;27.20;99.90
26230;DHT22;13960;50.860;4.352;2022-07-10T14:32:18;27.00;99.90
26230;DHT22;13960;50.860;4.352;2022-07-10T14:34:43;27.20;99.90
26230;DHT22;13960;50.860;4.352;2022-07-10T14:37:09;27.20;99.90
26230;DHT22;13960;50.860;4.352;2022-07-10T14:39:34;27.70;99.90
26230;DHT22;13960;50.860;4.352;2022-07-10T14:42:00;27.70;99.90
26230;DHT22;13960;50.860;4.352;2022-07-10T14:44:26;27.70;99.90
26230;DHT22;13960;50.860;4.352;2022-07-10T14:46:52;27.10;99.90
26230;DHT22;13960;50.860;4.352;2022-07-10T14:49:17;26.70;99.90
26230;DHT22;13960;50.860;4.352;2022-07-10T14:51:44;26.90;99.90
26230;DHT22;13960;50.860;4.352;2022-07-10T14:54:10;26.20;99.90
26230;DHT22;13960;50.860;4.352;2022-07-10T14:56:36;25.70;99.90
26230;DHT22;13960;50.860;4.352;2022-07-10T14:59:01;25.50;99.90
26230;DHT22;13960;50.860;4.352;2022-07-10T15:01:30;25.80;99.90
26230;DHT22;13960;50.860;4.352;2022-07-10T15:07:08;26.50;99.90
26230;DHT22;13960;50.860;4.352;2022-07-10T15:09:34;27.60;99.90
26230;DHT22;13960;50.860;4.352;2022-07-10T15:12:00;28.60;99.90
26230;DHT22;13960;50.860;4.352;2022-07-10T15:14:25;28.60;99.90
26230;DHT22;13960;50.860;4.352;2022-07-10T15:16:52;29.10;99.90
26230;DHT22;13960;50.860;4.352;2022-07-10T15:19:18;28.30;99.90
26230;DHT22;13960;50.860;4.352;2022-07-10T15:21:43;27.40;99.90
26230;DHT22;13960;50.860;4.352;2022-07-10T15:24:09;27.90;99.90
26230;DHT22;13960;50.860;4.352;2022-07-10T15:26:34;28.40;99.90
26230;DHT22;13960;50.860;4.352;2022-07-10T15:29:00;28.70;99.90
26230;DHT22;13960;50.860;4.352;2022-07-10T15:31:26;29.70;99.90
26230;DHT22;13960;50.860;4.352;2022-07-10T15:33:52;29.50;99.90
26230;DHT22;13960;50.860;4.352;2022-07-10T15:36:17;28.60;99.90
26230;DHT22;13960;50.860;4.352;2022-07-10T15:38:44;29.70;99.90
26230;DHT22;13960;50.860;4.352;2022-07-10T15:41:10;30.30;99.90
26230;DHT22;13960;50.860;4.352;2022-07-10T15:43:35;29.50;99.90
26230;DHT22;13960;50.860;4.352;2022-07-10T15:46:01;29.80;99.90
26230;DHT22;13960;50.860;4.352;2022-07-10T15:48:26;29.50;99.90
26230;DHT22;13960;50.860;4.352;2022-07-10T15:50:52;28.90;99.90
26230;DHT22;13960;50.860;4.352;2022-07-10T15:53:19;27.90;99.90
26230;DHT22;13960;50.860;4.352;2022-07-10T15:55:45;27.30;99.90
26230;DHT22;13960;50.860;4.352;2022-07-10T15:58:10;26.90;99.90
26230;DHT22;13960;50.860;4.352;2022-07-10T16:00:38;26.60;99.90
26230;DHT22;13960;50.860;4.352;2022-07-10T16:03:03;26.50;99.90
26230;DHT22;13960;50.860;4.352;2022-07-10T16:05:29;26.30;99.90
26230;DHT22;13960;50.860;4.352;2022-07-10T16:07:54;26.30;99.90
26230;DHT22;13960;50.860;4.352;2022-07-10T16:10:20;26.60;99.90
26230;DHT22;13960;50.860;4.352;2022-07-10T16:12:45;27.00;99.90
26230;DHT22;13960;50.860;4.352;2022-07-10T16:15:11;28.30;99.90